SiteLock Weer in Ekeren en de Haven van Antwerpen - Nearby METAR Reports

Nearby METAR Reports

 

KSJC - San Jose, California, USA
Distance from station: NO 14km
Ververst: 10/12/2018 00:53
Meestal bewolkt
Meestal bewolkt
 Wind van calm
Wind: Kalm
Temperatuur: 12°C
Dauwpunt: 8°C
Vochtigheid: 77%
Barometer: 1025.1 hPa
Clouds: Meestal bewolkt
Visibility: 14 km
Cloud details: Few Clouds 30 m
Gedeeltelijk bewolkt 1981 m
Meestal bewolkt 3658 m
2018/12/09 23:53 KSJC 092353Z 00000KT 9SM FEW001 SCT065 BKN120 12/08 A3027 RMK AO2 SLP249 T01220078 10122 20094 58007
KNUQ - Moffett Nas/Mtn, California, USA
Distance from station: N 14km
Ververst: 10/12/2018 00:56
Helder
Helder
 Wind van N
Wind: N 9 km/h
Temperatuur: 12°C
Dauwpunt: 8°C
Vochtigheid: 77%
Barometer: 1025.4 hPa
Clouds: Helder
Visibility: 13 km
2018/12/09 23:56 KNUQ 092356Z 35005KT 8SM CLR 12/08 A3028 RMK AO2 SLP255 T01220083 10122 20083 58012 $
 
KPAO - Palo Alto, California, USA
Distance from station: NNW 23km
Ververst: 10/12/2018 00:47
Mist, Meestal bewolkt
Mist, Meestal bewolkt
 Wind van varies
Wind: varies 9 km/h
Temperatuur: 12°C
Dauwpunt: 9°C
Vochtigheid: 82%
Barometer: 1025.7 hPa
Overzicht: Mist
Clouds: Meestal bewolkt
Visibility: 11 km
Cloud details: Meestal bewolkt 3658 m
2018/12/09 23:47 KPAO 092347Z VRB05KT 07SM BR BKN120 12/09 A3029
KRHV - San Jose/Reid, California, USA
Distance from station: ONO 19km
Ververst: 10/12/2018 00:47
Meestal bewolkt
Meestal bewolkt
 Wind van WNW
Wind: WNW 11 km/h
Temperatuur: 13°C
Dauwpunt: 8°C
Vochtigheid: 72%
Barometer: 1024.4 hPa
Clouds: Meestal bewolkt
Visibility: 16 km
Cloud details: Gedeeltelijk bewolkt 914 m
Meestal bewolkt 3048 m
2018/12/09 23:47 KRHV 092347Z 30006KT 10SM SCT030 BKN100 13/08 A3025
 
KOAK - Oakland, California, USA
Distance from station: NNW 50km
Ververst: 10/12/2018 00:53
Haze, Meestal bewolkt
Haze, Meestal bewolkt
 Wind van W
Wind: W 9 km/h
Temperatuur: 13°C
Dauwpunt: 8°C
Vochtigheid: 72%
Barometer: 1025.4 hPa
Overzicht: Haze
Clouds: Meestal bewolkt
Visibility: 10 km
Cloud details: Few Clouds 244 m
Few Clouds 914 m
Gedeeltelijk bewolkt 5486 m
Meestal bewolkt 7620 m
2018/12/09 23:53 KOAK 092353Z 27005KT 6SM HZ FEW008 FEW030 SCT180 BKN250 13/08 A3028 RMK AO2 SLP254 T01280083 10144 20111 56012
KSQL - San Carlos Airpo, California, USA
Distance from station: NW 34km
Ververst: 10/12/2018 00:47
Haze, Meestal bewolkt
Haze, Meestal bewolkt
 Wind van calm
Wind: Kalm
Temperatuur: 12°C
Dauwpunt: 9°C
Vochtigheid: 82%
Barometer: 1025.4 hPa
Overzicht: Haze
Clouds: Meestal bewolkt
Visibility: 8 km
Cloud details: Meestal bewolkt 4572 m
2018/12/09 23:47 KSQL 092347Z 00000KT 5SM HZ BKN150 12/09 A3028
 
KSFO - San Francisco, California, USA
Distance from station: NW 49km
Ververst: 10/12/2018 00:56
Meestal bewolkt
Meestal bewolkt
 Wind van ONO
Wind: ONO 6 km/h
Temperatuur: 12°C
Dauwpunt: 8°C
Vochtigheid: 77%
Barometer: 1025.1 hPa
Clouds: Meestal bewolkt
Visibility: 13 km
Cloud details: Gedeeltelijk bewolkt 5486 m
Meestal bewolkt 6096 m
2018/12/09 23:56 KSFO 092356Z 06003KT 8SM SCT180 BKN200 12/08 A3027 RMK AO2 SLP249 T01220078 10128 20100 56011
KE16 - San Martin, California, USA
Distance from station: OZO 43km
Ververst: 10/12/2018 00:50
Helder
Helder
 Wind van NW
Wind: NW 11 km/h
Temperatuur: 12°C
Dauwpunt: 7°C
Vochtigheid: 72%
Barometer: 1025.1 hPa
Clouds: Helder
Visibility: 16 km
2018/12/09 23:50 KE16 092350Z AUTO 32006KT 10SM CLR 12/07 A3027 RMK AO2
 
KWVI - Watsonville, California, USA
Distance from station: ZZO 44km
Ververst: 10/12/2018 00:53
Helder
Helder
 Wind van calm
Wind: Kalm
Temperatuur: 14°C
Dauwpunt: 9°C
Vochtigheid: 72%
Barometer: 1024.4 hPa
Clouds: Helder
Visibility: 16 km
2018/12/09 23:53 KWVI 092353Z AUTO 00000KT 10SM CLR 14/09 A3025 RMK AO2 SLP244 T01440089 10161 20106 58008
KHAF - Half Moon Bay, California, USA
Distance from station: WNW 50km
Ververst: 10/12/2018 01:00
Helder
Helder
 Wind van Z
Wind: Z 6 km/h
Temperatuur: 14°C
Dauwpunt: 10°C
Vochtigheid: 77%
Barometer: 1024.7 hPa
Clouds: Helder
Visibility: 13 km
2018/12/10 00:00 KHAF 100000Z AUTO 18003KT 8SM CLR 14/10 A3026 RMK AO2
 
KHWD - Hayward, California, USA
Distance from station: N 44km
Ververst: 10/12/2018 00:54
Helder
Helder
 Wind van NO
Wind: NO 13 km/h
Temperatuur: 13°C
Dauwpunt: 7°C
Vochtigheid: 67%
Barometer: 1025.1 hPa
Clouds: Helder
Visibility: 13 km
2018/12/09 23:54 KHWD 092354Z 05007KT 8SM CLR 13/07 A3027 RMK AO2 SLP261 T01280072 10133 20111 56012
KLVK - Livermore, California, USA
Distance from station: NNO 51km
Ververst: 10/12/2018 00:53
Mist, Zwaar bewolkt
Mist, Zwaar bewolkt
 Wind van NO
Wind: NO 13 km/h
Temperatuur: 9°C
Gevoelstemp.: 7°C
Dauwpunt: 7°C
Vochtigheid: 87%
Barometer: 1025.1 hPa
Overzicht: Mist
Clouds: Zwaar bewolkt
Visibility: 4 km
Cloud details: Zwaar bewolkt 213 m
2018/12/09 23:53 KLVK 092353Z 05007KT 2 1/2SM BR OVC007 09/07 A3027 RMK AO2 SLP252 T00890072 10094 20056 58010